Latest Weather Observations for Miles

IDQ60801

Issued at 1:35 pm EST Thursday 18 September 2014 (issued every 30 minutes, with the page automatically refreshed every 10 minutes)

About weather observations | Map of weather stations | Latest weather observations for QLD | Other Formats
Station Details ID: 042112 Name: MILES CONSTANCE STREET Lat: -26.66 Lon: 150.18 Height: 304.8 m
Data from the previous 72 hours. | See also: Recent months at Miles
Date/Time
EST
Temp
°C
App
Temp
°C
Dew
Point
Rel
Hum
%
Delta-T
°C
Wind Press
QNH
hPa
Press
MSL
hPa
Rain
since 9 am
mm
Dir
 
Spd
km/h
Gust
km/h
Spd
kts
Gust
kts
18/01:30pm 23.5 17.2 -5.8 14 12.1 S 19 26 10 14 1019.1 - 0.0
18/01:00pm 23.2 18.1 -5.6 14 11.9 SSW 13 32 7 17 1019.4 - 0.0
18/12:30pm 23.1 17.3 -4.9 15 11.7 S 17 24 9 13 1019.9 - 0.0
18/12:00pm 22.3 16.5 -4.5 16 11.2 SW 17 28 9 15 1020.4 1019.9 0.0
18/11:30am 22.3 16.6 -4.0 17 11.1 WSW 17 30 9 16 1021.2 - 0.0
18/11:00am 21.5 15.8 -4.1 17 10.7 SSW 17 24 9 13 1021.6 - 0.0
18/10:30am 21.2 15.1 -3.9 18 10.5 SW 19 32 10 17 1022.0 - 0.0
18/10:00am 20.8 15.1 -3.4 19 10.2 S 17 30 9 16 1022.2 - 0.0
18/09:30am 19.9 15.2 -2.0 22 9.4 S 13 22 7 12 1022.5 - 0.0
18/09:00am 18.9 13.4 -2.4 23 9.0 SSW 17 26 9 14 1022.6 1022.1 0.0
18/08:30am 17.6 13.4 -0.7 29 7.9 S 11 19 6 10 1022.5 - 0.0
18/08:00am 15.3 11.2 -0.5 34 6.7 SSE 11 15 6 8 1022.3 - 0.0
18/07:30am 13.4 10.1 0.2 40 5.6 S 7 13 4 7 1022.0 - 0.0
18/07:00am 8.8 7.3 2.8 66 2.6 CALM 0 0 0 0 1021.6 - 0.0
18/06:30am 6.1 4.4 2.0 75 1.7 CALM 0 0 0 0 1021.2 - 0.0
18/06:00am 5.4 3.7 1.7 77 1.5 WSW 0 0 0 0 1020.9 1020.3 0.0
18/05:30am 6.0 4.3 1.8 74 1.7 SW 0 0 0 0 1020.3 - 0.0
18/05:00am 6.6 5.0 2.5 75 1.7 CALM 0 0 0 0 1020.1 - 0.0
18/04:30am 7.4 5.8 2.4 70 2.1 SW 0 0 0 0 1019.8 - 0.0
18/04:00am 8.6 7.2 3.6 71 2.2 CALM 0 0 0 0 1019.5 - 0.0
18/03:30am 9.8 8.2 2.6 61 3.1 CALM 0 0 0 0 1019.5 - 0.0
18/03:00am 11.3 9.6 1.8 52 4.1 CALM 0 4 0 2 1019.4 1018.9 0.0
18/02:30am 13.0 9.8 -0.4 39 5.6 SW 6 9 3 5 1019.3 - 0.0
18/02:00am 13.9 10.1 -1.1 35 6.2 SSW 9 13 5 7 1019.2 - 0.0
18/01:30am 14.6 11.1 -1.3 33 6.6 SSW 7 11 4 6 1019.1 - 0.0
18/01:00am 15.4 11.5 -1.7 31 7.1 SSW 9 15 5 8 1019.1 - 0.0
18/12:30am 15.9 11.6 -1.6 30 7.3 SSW 11 15 6 8 1018.9 - 0.0
18/12:00am 16.5 12.2 -1.6 29 7.6 SSW 11 17 6 9 1018.9 1018.4 0.0
 
Date/Time
EST
Temp
°C
App
Temp
°C
Dew
Point
Rel
Hum
%
Delta-T
°C
Wind Press
QNH
hPa
Press
MSL
hPa
Rain
since 9 am
mm
Dir
 
Spd
km/h
Gust
km/h
Spd
kts
Gust
kts
17/11:30pm 17.2 13.3 -1.4 28 7.9 SSW 9 13 5 7 1018.8 - 0.0
17/11:00pm 18.0 13.6 -2.2 25 8.5 SSW 11 17 6 9 1018.7 - 0.0
17/10:30pm 18.7 14.3 -2.4 24 8.9 SSW 11 20 6 11 1018.5 - 0.0
17/10:00pm 19.1 15.1 -1.9 24 9.0 SW 9 15 5 8 1018.2 - 0.0
17/09:30pm 20.2 15.8 -2.5 21 9.7 SSW 11 19 6 10 1017.8 - 0.0
17/09:00pm 20.5 16.4 -3.1 20 10.0 SSW 9 17 5 9 1017.6 1017.0 0.0
17/08:30pm 20.4 16.3 -2.9 20 9.9 SSW 9 13 5 7 1017.0 - 0.0
17/08:00pm 20.1 16.5 -2.3 22 9.6 SSW 7 13 4 7 1016.8 - 0.0
17/07:30pm 18.8 16.0 2.2 33 7.7 SSW 6 7 3 4 1016.2 - 0.0
17/07:00pm 19.7 16.6 0.4 27 8.7 SSW 6 7 3 4 1015.8 - 0.0
17/06:30pm 21.2 17.9 -1.1 22 9.9 SSW 6 9 3 5 1015.4 - 0.0
17/06:00pm 22.6 19.2 -2.2 19 10.9 SW 6 7 3 4 1015.0 1014.4 0.0
17/05:30pm 24.1 19.3 -5.6 13 12.4 WSW 11 19 6 10 1014.7 - 0.0
17/05:00pm 25.5 19.8 -7.7 10 13.5 W 15 24 8 13 1014.5 - 0.0
17/04:30pm 25.9 20.6 -7.6 10 13.7 WNW 13 26 7 14 1014.2 - 0.0
17/04:00pm 26.8 21.8 -8.3 9 14.3 WSW 11 20 6 11 1014.0 - 0.0
17/03:30pm 26.3 19.4 -11.0 8 14.4 WSW 20 35 11 19 1014.0 - 0.0
17/03:00pm 27.1 21.6 -5.4 11 14.0 W 15 30 8 16 1014.2 1013.6 0.0
17/02:30pm 26.4 20.3 -7.8 10 14.0 WSW 17 32 9 17 1014.4 - 0.0
17/02:00pm 26.3 19.6 -7.5 10 13.9 WSW 20 30 11 16 1014.6 - 0.0
17/01:30pm 26.3 20.4 -5.7 11 13.6 W 17 30 9 16 1014.8 - 0.0
17/01:00pm 25.5 19.7 -4.8 13 13.0 W 17 26 9 14 1015.2 - 0.0
17/12:30pm 25.3 21.0 -1.9 16 12.3 WSW 11 20 6 11 1015.6 - 0.0
17/12:00pm 24.9 20.7 -1.2 18 11.9 NNW 11 20 6 11 1016.1 1015.6 0.0
17/11:30am 24.0 19.1 -3.4 16 11.9 WNW 13 26 7 14 1016.6 - 0.0
17/11:00am 23.6 18.5 -1.7 18 11.3 W 15 20 8 11 1017.1 - 0.0
17/10:30am 23.3 18.7 -1.1 19 11.0 WSW 13 24 7 13 1017.9 - 0.0
17/10:00am 22.4 19.0 -0.6 21 10.4 W 7 13 4 7 1018.1 - 0.0
17/09:30am 21.6 17.5 -0.3 23 9.9 SW 11 19 6 10 1018.3 - 0.0
17/09:00am 21.3 17.6 -0.2 24 9.7 SSW 9 15 5 8 1018.5 1018.0 0.0
17/08:30am 20.2 16.5 -0.1 25 9.1 W 9 15 5 8 1018.3 - 0.0
17/08:00am 17.4 15.9 3.0 38 6.7 CALM 0 7 0 4 1018.1 - 0.0
17/07:30am 12.9 11.7 4.5 56 3.9 CALM 0 0 0 0 1017.9 - 0.0
17/07:00am 9.7 8.5 4.6 70 2.3 CALM 0 0 0 0 1017.8 - 0.0
17/06:30am 7.1 5.9 4.6 84 1.1 CALM 0 0 0 0 1017.2 - 0.0
17/06:00am 6.5 5.2 4.2 85 1.0 CALM 0 0 0 0 1016.9 1016.4 0.0
17/05:30am 6.7 5.5 4.7 87 0.9 CALM 0 0 0 0 1016.6 - 0.0
17/05:00am 6.8 5.7 5.0 88 0.8 CALM 0 0 0 0 1016.2 - 0.0
17/04:30am 7.2 6.1 5.0 86 1.0 CALM 0 0 0 0 1015.8 - 0.0
17/04:00am 7.6 6.5 4.9 83 1.2 CALM 0 0 0 0 1015.6 - 0.0
17/03:30am 8.1 7.0 5.2 82 1.3 CALM 0 0 0 0 1015.7 - 0.0
17/03:00am 8.5 7.4 5.2 80 1.5 CALM 0 0 0 0 1015.5 1014.9 0.0
17/02:30am 8.8 7.8 5.8 81 1.4 CALM 0 0 0 0 1015.5 - 0.0
17/02:00am 9.5 8.7 6.3 80 1.5 CALM 0 0 0 0 1015.6 - 0.0
17/01:30am 9.9 9.1 6.5 79 1.6 CALM 0 0 0 0 1015.8 - 0.0
17/01:00am 10.5 9.7 6.7 77 1.8 CALM 0 0 0 0 1015.8 - 0.0
17/12:30am 11.4 10.5 5.9 69 2.6 CALM 0 0 0 0 1016.0 - 0.0
17/12:00am 12.2 11.4 6.6 68 2.7 CALM 0 0 0 0 1016.0 1015.5 0.0
 
Date/Time
EST
Temp
°C
App
Temp
°C
Dew
Point
Rel
Hum
%
Delta-T
°C
Wind Press
QNH
hPa
Press
MSL
hPa
Rain
since 9 am
mm
Dir
 
Spd
km/h
Gust
km/h
Spd
kts
Gust
kts
16/11:30pm 13.0 12.2 6.6 65 3.1 CALM 0 0 0 0 1016.0 - 0.0
16/11:00pm 14.0 13.1 5.9 58 3.9 CALM 0 0 0 0 1015.8 - 0.0
16/10:30pm 15.0 14.1 6.0 55 4.4 CALM 0 0 0 0 1015.7 - 0.0
16/10:00pm 16.1 15.2 5.9 50 5.0 CALM 0 0 0 0 1015.4 - 0.0
16/09:30pm 17.8 16.9 6.2 46 5.8 CALM 0 0 0 0 1015.2 - 0.0
16/09:00pm 20.2 18.5 5.7 38 7.3 SSW 4 7 2 4 1015.1 1014.5 0.0
16/08:30pm 20.9 18.2 3.9 32 8.3 SW 7 11 4 6 1014.8 - 0.0
16/08:00pm 19.5 17.9 6.3 42 6.7 WSW 4 7 2 4 1014.4 - 0.0
16/07:30pm 21.1 20.5 7.5 41 7.1 CALM 0 0 0 0 1013.7 - 0.0
16/07:00pm 22.6 22.0 7.2 37 8.1 CALM 0 4 0 2 1013.3 - 0.0
16/06:30pm 25.0 22.7 4.8 27 10.3 WSW 6 7 3 4 1012.8 - 0.0
16/06:00pm 26.9 22.9 0.6 18 12.6 W 11 20 6 11 1012.5 1011.9 0.0
16/05:30pm 27.8 23.4 0.3 16 13.2 W 13 22 7 12 1012.2 - 0.0
16/05:00pm 28.2 22.8 -1.7 14 13.9 W 17 30 9 16 1012.1 - 0.0
16/04:30pm 29.2 24.3 -0.5 14 14.2 WNW 15 28 8 15 1011.9 - 0.0
16/04:00pm 29.1 25.2 1.3 16 13.7 WNW 11 19 6 10 1011.8 - 0.0
16/03:30pm 28.7 24.9 2.0 18 13.3 NW 11 20 6 11 1011.8 - 0.0
16/02:30pm 29.8 24.0 0.1 14 14.4 WNW 20 35 11 19 1012.3 - 0.0
16/02:00pm 28.2 23.1 3.1 20 12.7 NW 19 33 10 18 1012.6 - 0.0
16/01:30pm 29.1 24.5 3.8 20 13.0 NW 17 35 9 19 1013.1 - 0.0
16/01:00pm 29.3 24.7 3.6 19 13.2 WNW 17 28 9 15 1013.8 - 0.0
16/12:30pm 29.2 24.2 3.7 19 13.1 NNW 19 32 10 17 1014.5 - 0.0
16/12:00pm 27.9 23.3 3.8 21 12.3 NW 17 33 9 18 1015.1 1014.5 0.0
16/11:30am 28.0 22.9 4.0 21 12.3 N 20 30 11 16 1015.6 - 0.0
16/11:00am 27.3 23.6 4.6 23 11.7 NNW 13 20 7 11 1016.1 - 0.0
16/10:30am 26.8 22.5 5.2 25 11.2 NNW 17 30 9 16 1016.6 - 0.0
16/10:00am 25.3 21.4 5.3 27 10.3 NNW 15 24 8 13 1017.0 - 0.0
16/09:30am 23.9 19.6 5.3 30 9.5 NNW 17 30 9 16 1017.5 - 0.0
16/09:00am 22.1 17.7 4.9 32 8.6 NNW 17 35 9 19 1017.6 1017.0 0.0
16/08:30am 21.3 17.0 5.4 35 8.0 N 17 28 9 15 1017.5 - 0.0
16/08:00am 19.9 15.5 4.9 37 7.4 N 17 26 9 14 1017.0 - 0.0
16/07:30am 18.9 14.8 4.2 37 7.1 N 15 26 8 14 1017.1 - 0.0
16/07:00am 17.9 14.0 3.5 38 6.8 N 13 24 7 13 1017.0 - 0.0
16/06:30am 16.6 12.4 3.9 42 6.0 N 15 26 8 14 1016.8 - 0.0
16/06:00am 13.8 10.6 5.2 56 4.1 N 11 15 6 8 1016.7 1016.2 0.0
16/05:30am 13.1 10.7 5.3 59 3.7 N 7 11 4 6 1017.0 - 0.0
16/05:00am 12.9 10.2 5.5 60 3.5 N 9 11 5 6 1016.3 - 0.0
16/04:30am 13.6 10.5 5.4 57 3.9 N 11 17 6 9 1016.0 - 0.0
16/04:00am 14.1 10.9 5.3 55 4.2 N 11 15 6 8 1015.9 - 0.0
16/03:30am 14.7 11.5 5.3 53 4.5 N 11 15 6 8 1015.9 - 0.0
16/03:00am 14.8 11.6 5.2 52 4.6 N 11 13 6 7 1015.9 1015.4 0.0
16/02:30am 14.6 11.8 5.2 53 4.5 N 9 13 5 7 1016.0 - 0.0
16/02:00am 14.9 12.4 4.8 51 4.8 N 7 11 4 6 1015.9 - 0.0
16/01:30am 15.7 12.7 4.0 45 5.5 N 9 15 5 8 1016.0 - 0.0
16/01:00am 15.3 12.0 4.3 48 5.2 N 11 15 6 8 1016.0 - 0.0
16/12:30am 14.1 11.2 4.8 53 4.4 N 9 11 5 6 1016.1 - 0.0
16/12:00am 13.2 10.5 5.4 59 3.7 N 9 11 5 6 1016.1 1015.6 0.0
 
Date/Time
EST
Temp
°C
App
Temp
°C
Dew
Point
Rel
Hum
%
Delta-T
°C
Wind Press
QNH
hPa
Press
MSL
hPa
Rain
since 9 am
mm
Dir
 
Spd
km/h
Gust
km/h
Spd
kts
Gust
kts
15/11:30pm 12.7 10.6 6.5 66 3.0 N 7 9 4 5 1015.9 - 0.0
15/11:00pm 12.4 11.7 7.1 70 2.6 CALM 0 0 0 0 1015.9 - 0.0
15/10:30pm 13.1 12.3 6.5 64 3.2 CALM 0 0 0 0 1015.9 - 0.0
15/10:00pm 13.1 11.4 7.5 69 2.8 N 6 7 3 4 1016.1 - 0.0
15/09:30pm 13.9 12.1 7.0 63 3.4 N 6 7 3 4 1016.0 - 0.0
15/09:00pm 14.4 13.8 7.4 63 3.5 CALM 0 0 0 0 1016.1 1015.6 0.0
15/08:30pm 15.1 14.4 6.8 57 4.1 CALM 0 0 0 0 1016.0 - 0.0
15/08:00pm 16.0 15.3 6.8 54 4.6 CALM 0 0 0 0 1015.8 - 0.0
15/07:30pm 17.3 16.7 7.5 52 5.0 CALM 0 0 0 0 1015.7 - 0.0
15/07:00pm 18.7 18.1 7.4 47 5.8 CALM 0 0 0 0 1015.6 - 0.0
15/06:30pm 20.7 19.1 6.2 39 7.4 N 4 7 2 4 1015.4 - 0.0
15/06:00pm 22.5 21.7 8.3 40 7.6 N 2 6 1 3 1015.3 1014.7 0.0
15/05:30pm 24.6 23.6 5.6 29 9.8 CALM 0 0 0 0 1015.0 - 0.0
15/05:00pm 26.1 24.7 3.6 23 11.3 CALM 0 9 0 5 1014.8 - 0.0
15/04:30pm 25.8 23.7 3.7 24 11.1 WNW 4 9 2 5 1014.6 - 0.0
15/04:00pm 26.9 24.2 2.5 20 12.1 N 6 15 3 8 1014.6 - 0.0
15/03:30pm 26.6 24.1 3.9 23 11.5 N 6 9 3 5 1014.7 - 0.0
15/03:00pm 26.4 23.2 3.2 22 11.6 NE 9 13 5 7 1014.8 1014.2 0.0
15/02:30pm 26.5 22.6 3.4 22 11.6 NNE 13 19 7 10 1015.0 - 0.0
15/02:00pm 26.3 24.5 3.7 23 11.4 N 2 9 1 5 1015.3 - 0.0

Other Formats:

Comma delimited format used in spreadsheet applications
http://www.bom.gov.au/fwo/IDQ60801/IDQ60801.95529.axf

JavaScript Object Notation format (JSON) in row-major order
http://www.bom.gov.au/fwo/IDQ60801/IDQ60801.95529.json